sensor_id;sensor_type;location;lat;lon;timestamp;P1;durP1;ratioP1;P2;durP2;ratioP2
5999;SDS011;3028;49.468;7.694;2024-03-02T00:00:05;5.07;;;3.35;;
5999;SDS011;3028;49.468;7.694;2024-03-02T00:02:13;2.58;;;2.38;;
5999;SDS011;3028;49.468;7.694;2024-03-02T00:04:15;5.75;;;5.35;;
5999;SDS011;3028;49.468;7.694;2024-03-02T00:06:19;4.55;;;4.15;;
5999;SDS011;3028;49.468;7.694;2024-03-02T00:08:23;5.88;;;4.18;;
5999;SDS011;3028;49.468;7.694;2024-03-02T00:10:36;3.20;;;3.00;;
5999;SDS011;3028;49.468;7.694;2024-03-02T00:12:41;5.00;;;4.60;;
5999;SDS011;3028;49.468;7.694;2024-03-02T00:14:43;6.60;;;4.70;;
5999;SDS011;3028;49.468;7.694;2024-03-02T00:16:45;5.93;;;4.43;;
5999;SDS011;3028;49.468;7.694;2024-03-02T00:18:47;4.43;;;4.10;;
5999;SDS011;3028;49.468;7.694;2024-03-02T00:20:49;5.47;;;5.07;;
5999;SDS011;3028;49.468;7.694;2024-03-02T00:23:14;4.43;;;4.03;;
5999;SDS011;3028;49.468;7.694;2024-03-02T00:25:17;13.35;;;6.65;;
5999;SDS011;3028;49.468;7.694;2024-03-02T00:27:22;6.18;;;5.20;;
5999;SDS011;3028;49.468;7.694;2024-03-02T00:29:26;5.65;;;4.60;;
5999;SDS011;3028;49.468;7.694;2024-03-02T00:31:29;6.90;;;6.03;;
5999;SDS011;3028;49.468;7.694;2024-03-02T00:35:46;5.97;;;5.00;;
5999;SDS011;3028;49.468;7.694;2024-03-02T00:37:48;5.13;;;4.65;;
5999;SDS011;3028;49.468;7.694;2024-03-02T00:39:50;4.80;;;4.43;;
5999;SDS011;3028;49.468;7.694;2024-03-02T00:41:52;3.72;;;3.42;;
5999;SDS011;3028;49.468;7.694;2024-03-02T00:43:57;4.28;;;3.97;;
5999;SDS011;3028;49.468;7.694;2024-03-02T00:46:00;5.50;;;5.00;;
5999;SDS011;3028;49.468;7.694;2024-03-02T00:48:01;3.63;;;3.30;;
5999;SDS011;3028;49.468;7.694;2024-03-02T00:50:04;4.60;;;4.30;;
5999;SDS011;3028;49.468;7.694;2024-03-02T00:52:20;4.95;;;4.55;;
5999;SDS011;3028;49.468;7.694;2024-03-02T00:54:22;8.68;;;3.30;;
5999;SDS011;3028;49.468;7.694;2024-03-02T00:56:27;4.00;;;3.50;;
5999;SDS011;3028;49.468;7.694;2024-03-02T00:58:29;2.42;;;2.22;;
5999;SDS011;3028;49.468;7.694;2024-03-02T01:00:30;3.30;;;2.97;;
5999;SDS011;3028;49.468;7.694;2024-03-02T01:02:32;3.10;;;2.17;;
5999;SDS011;3028;49.468;7.694;2024-03-02T01:04:34;2.72;;;2.50;;
5999;SDS011;3028;49.468;7.694;2024-03-02T01:06:36;1.85;;;1.75;;
5999;SDS011;3028;49.468;7.694;2024-03-02T01:08:38;2.45;;;2.03;;
5999;SDS011;3028;49.468;7.694;2024-03-02T01:10:40;2.38;;;2.17;;
5999;SDS011;3028;49.468;7.694;2024-03-02T01:12:42;3.33;;;2.28;;
5999;SDS011;3028;49.468;7.694;2024-03-02T01:14:44;2.70;;;2.50;;
5999;SDS011;3028;49.468;7.694;2024-03-02T01:16:46;2.03;;;1.85;;
5999;SDS011;3028;49.468;7.694;2024-03-02T01:18:48;3.17;;;2.08;;
5999;SDS011;3028;49.468;7.694;2024-03-02T01:20:50;2.97;;;2.78;;
5999;SDS011;3028;49.468;7.694;2024-03-02T01:22:57;2.33;;;2.13;;
5999;SDS011;3028;49.468;7.694;2024-03-02T01:24:59;2.33;;;2.22;;
5999;SDS011;3028;49.468;7.694;2024-03-02T01:27:01;2.53;;;2.42;;
5999;SDS011;3028;49.468;7.694;2024-03-02T01:29:03;2.78;;;2.28;;
5999;SDS011;3028;49.468;7.694;2024-03-02T01:31:04;3.13;;;2.88;;
5999;SDS011;3028;49.468;7.694;2024-03-02T01:33:06;9.23;;;2.33;;
5999;SDS011;3028;49.468;7.694;2024-03-02T01:35:08;3.67;;;2.50;;
5999;SDS011;3028;49.468;7.694;2024-03-02T01:37:10;3.00;;;2.80;;
5999;SDS011;3028;49.468;7.694;2024-03-02T01:39:12;2.65;;;2.45;;
5999;SDS011;3028;49.468;7.694;2024-03-02T01:41:14;3.33;;;2.58;;
5999;SDS011;3028;49.468;7.694;2024-03-02T01:43:16;2.60;;;1.98;;
5999;SDS011;3028;49.468;7.694;2024-03-02T01:45:17;1.75;;;1.65;;
5999;SDS011;3028;49.468;7.694;2024-03-02T01:47:19;3.03;;;2.78;;
5999;SDS011;3028;49.468;7.694;2024-03-02T01:49:21;2.78;;;2.58;;
5999;SDS011;3028;49.468;7.694;2024-03-02T01:51:23;2.63;;;2.38;;
5999;SDS011;3028;49.468;7.694;2024-03-02T01:53:28;2.40;;;2.20;;
5999;SDS011;3028;49.468;7.694;2024-03-02T01:55:30;3.30;;;3.00;;
5999;SDS011;3028;49.468;7.694;2024-03-02T01:57:32;1.98;;;1.88;;
5999;SDS011;3028;49.468;7.694;2024-03-02T01:59:35;2.30;;;2.15;;
5999;SDS011;3028;49.468;7.694;2024-03-02T02:01:36;5.07;;;3.42;;
5999;SDS011;3028;49.468;7.694;2024-03-02T02:03:38;2.33;;;2.22;;
5999;SDS011;3028;49.468;7.694;2024-03-02T02:05:42;2.15;;;2.05;;
5999;SDS011;3028;49.468;7.694;2024-03-02T02:07:43;7.60;;;2.50;;
5999;SDS011;3028;49.468;7.694;2024-03-02T02:09:45;2.10;;;1.95;;
5999;SDS011;3028;49.468;7.694;2024-03-02T02:11:47;3.50;;;3.30;;
5999;SDS011;3028;49.468;7.694;2024-03-02T02:13:49;2.95;;;2.75;;
5999;SDS011;3028;49.468;7.694;2024-03-02T02:15:50;2.03;;;1.92;;
5999;SDS011;3028;49.468;7.694;2024-03-02T02:17:54;2.50;;;2.40;;
5999;SDS011;3028;49.468;7.694;2024-03-02T02:19:57;2.95;;;1.80;;
5999;SDS011;3028;49.468;7.694;2024-03-02T02:21:59;2.38;;;2.17;;
5999;SDS011;3028;49.468;7.694;2024-03-02T02:24:01;3.42;;;3.13;;
5999;SDS011;3028;49.468;7.694;2024-03-02T02:26:05;2.05;;;1.95;;
5999;SDS011;3028;49.468;7.694;2024-03-02T02:28:06;2.20;;;2.00;;
5999;SDS011;3028;49.468;7.694;2024-03-02T02:30:08;1.65;;;1.55;;
5999;SDS011;3028;49.468;7.694;2024-03-02T02:32:10;2.60;;;2.40;;
5999;SDS011;3028;49.468;7.694;2024-03-02T02:34:13;2.50;;;2.40;;
5999;SDS011;3028;49.468;7.694;2024-03-02T02:36:15;2.20;;;2.10;;
5999;SDS011;3028;49.468;7.694;2024-03-02T02:38:17;2.25;;;2.05;;
5999;SDS011;3028;49.468;7.694;2024-03-02T02:40:21;1.50;;;1.40;;
5999;SDS011;3028;49.468;7.694;2024-03-02T02:42:23;2.35;;;2.15;;
5999;SDS011;3028;49.468;7.694;2024-03-02T02:44:24;2.03;;;1.77;;
5999;SDS011;3028;49.468;7.694;2024-03-02T02:46:26;1.63;;;1.52;;
5999;SDS011;3028;49.468;7.694;2024-03-02T02:48:28;2.00;;;1.55;;
5999;SDS011;3028;49.468;7.694;2024-03-02T02:50:30;2.80;;;2.42;;
5999;SDS011;3028;49.468;7.694;2024-03-02T02:52:32;2.20;;;2.10;;
5999;SDS011;3028;49.468;7.694;2024-03-02T02:54:36;1.85;;;1.73;;
5999;SDS011;3028;49.468;7.694;2024-03-02T02:56:39;1.95;;;1.85;;
5999;SDS011;3028;49.468;7.694;2024-03-02T02:58:40;2.45;;;1.83;;
5999;SDS011;3028;49.468;7.694;2024-03-02T03:00:43;1.75;;;1.60;;
5999;SDS011;3028;49.468;7.694;2024-03-02T03:02:46;2.63;;;2.42;;
5999;SDS011;3028;49.468;7.694;2024-03-02T03:04:51;2.67;;;2.17;;
5999;SDS011;3028;49.468;7.694;2024-03-02T03:06:53;2.00;;;1.63;;
5999;SDS011;3028;49.468;7.694;2024-03-02T03:08:54;2.47;;;2.38;;
5999;SDS011;3028;49.468;7.694;2024-03-02T03:10:56;3.15;;;1.55;;
5999;SDS011;3028;49.468;7.694;2024-03-02T03:12:58;3.58;;;3.28;;
5999;SDS011;3028;49.468;7.694;2024-03-02T03:15:00;1.40;;;1.30;;
5999;SDS011;3028;49.468;7.694;2024-03-02T03:17:02;1.95;;;1.85;;
5999;SDS011;3028;49.468;7.694;2024-03-02T03:19:04;2.30;;;2.13;;
5999;SDS011;3028;49.468;7.694;2024-03-02T03:21:06;1.52;;;1.40;;
5999;SDS011;3028;49.468;7.694;2024-03-02T03:23:08;3.33;;;2.30;;
5999;SDS011;3028;49.468;7.694;2024-03-02T03:25:10;1.58;;;1.50;;
5999;SDS011;3028;49.468;7.694;2024-03-02T03:27:11;1.63;;;1.52;;
5999;SDS011;3028;49.468;7.694;2024-03-02T03:29:13;1.45;;;1.35;;
5999;SDS011;3028;49.468;7.694;2024-03-02T03:31:15;1.60;;;1.50;;
5999;SDS011;3028;49.468;7.694;2024-03-02T03:33:17;1.30;;;1.23;;
5999;SDS011;3028;49.468;7.694;2024-03-02T03:35:19;3.75;;;1.88;;
5999;SDS011;3028;49.468;7.694;2024-03-02T03:37:20;0.85;;;0.85;;
5999;SDS011;3028;49.468;7.694;2024-03-02T03:39:22;2.83;;;2.50;;
5999;SDS011;3028;49.468;7.694;2024-03-02T03:41:24;1.50;;;1.40;;
5999;SDS011;3028;49.468;7.694;2024-03-02T03:43:26;1.02;;;1.02;;
5999;SDS011;3028;49.468;7.694;2024-03-02T03:45:27;1.83;;;1.50;;
5999;SDS011;3028;49.468;7.694;2024-03-02T03:47:31;1.77;;;1.67;;
5999;SDS011;3028;49.468;7.694;2024-03-02T03:49:33;2.03;;;1.85;;
5999;SDS011;3028;49.468;7.694;2024-03-02T03:51:34;1.90;;;1.80;;
5999;SDS011;3028;49.468;7.694;2024-03-02T03:53:37;1.63;;;1.52;;
5999;SDS011;3028;49.468;7.694;2024-03-02T03:55:38;1.30;;;1.10;;
5999;SDS011;3028;49.468;7.694;2024-03-02T03:57:40;2.25;;;2.05;;
5999;SDS011;3028;49.468;7.694;2024-03-02T03:59:42;2.03;;;1.92;;
5999;SDS011;3028;49.468;7.694;2024-03-02T04:01:44;1.92;;;1.83;;
5999;SDS011;3028;49.468;7.694;2024-03-02T04:03:46;1.60;;;1.50;;
5999;SDS011;3028;49.468;7.694;2024-03-02T04:05:48;1.23;;;1.23;;
5999;SDS011;3028;49.468;7.694;2024-03-02T04:07:50;1.92;;;1.83;;
5999;SDS011;3028;49.468;7.694;2024-03-02T04:09:52;1.55;;;1.45;;
5999;SDS011;3028;49.468;7.694;2024-03-02T04:11:57;2.15;;;2.05;;
5999;SDS011;3028;49.468;7.694;2024-03-02T04:13:58;1.77;;;1.67;;
5999;SDS011;3028;49.468;7.694;2024-03-02T04:16:00;1.50;;;1.40;;
5999;SDS011;3028;49.468;7.694;2024-03-02T04:18:02;1.35;;;1.33;;
5999;SDS011;3028;49.468;7.694;2024-03-02T04:20:04;3.60;;;2.47;;
5999;SDS011;3028;49.468;7.694;2024-03-02T04:22:08;1.30;;;1.30;;
5999;SDS011;3028;49.468;7.694;2024-03-02T04:24:21;1.20;;;1.20;;
5999;SDS011;3028;49.468;7.694;2024-03-02T04:26:23;1.52;;;1.42;;
5999;SDS011;3028;49.468;7.694;2024-03-02T04:28:26;2.75;;;1.23;;
5999;SDS011;3028;49.468;7.694;2024-03-02T04:30:28;1.70;;;1.60;;
5999;SDS011;3028;49.468;7.694;2024-03-02T04:32:30;1.67;;;1.40;;
5999;SDS011;3028;49.468;7.694;2024-03-02T04:34:32;1.90;;;1.80;;
5999;SDS011;3028;49.468;7.694;2024-03-02T04:36:34;2.35;;;1.95;;
5999;SDS011;3028;49.468;7.694;2024-03-02T04:38:36;1.40;;;1.40;;
5999;SDS011;3028;49.468;7.694;2024-03-02T04:40:41;1.83;;;1.73;;
5999;SDS011;3028;49.468;7.694;2024-03-02T04:42:43;1.75;;;1.65;;
5999;SDS011;3028;49.468;7.694;2024-03-02T04:44:44;1.90;;;1.80;;
5999;SDS011;3028;49.468;7.694;2024-03-02T04:46:46;1.98;;;1.88;;
5999;SDS011;3028;49.468;7.694;2024-03-02T04:48:48;1.50;;;1.40;;
5999;SDS011;3028;49.468;7.694;2024-03-02T04:50:56;1.25;;;1.20;;
5999;SDS011;3028;49.468;7.694;2024-03-02T04:52:58;1.25;;;1.15;;
5999;SDS011;3028;49.468;7.694;2024-03-02T04:55:00;1.30;;;1.25;;
5999;SDS011;3028;49.468;7.694;2024-03-02T04:57:11;1.33;;;1.23;;
5999;SDS011;3028;49.468;7.694;2024-03-02T04:59:13;3.85;;;2.13;;
5999;SDS011;3028;49.468;7.694;2024-03-02T05:01:14;1.67;;;1.58;;
5999;SDS011;3028;49.468;7.694;2024-03-02T05:03:19;1.92;;;1.75;;
5999;SDS011;3028;49.468;7.694;2024-03-02T05:05:20;1.98;;;1.88;;
5999;SDS011;3028;49.468;7.694;2024-03-02T05:07:22;1.75;;;1.60;;
5999;SDS011;3028;49.468;7.694;2024-03-02T05:09:24;2.00;;;1.45;;
5999;SDS011;3028;49.468;7.694;2024-03-02T05:11:26;5.10;;;1.85;;
5999;SDS011;3028;49.468;7.694;2024-03-02T05:13:50;3.75;;;1.08;;
5999;SDS011;3028;49.468;7.694;2024-03-02T05:15:51;2.03;;;1.42;;
5999;SDS011;3028;49.468;7.694;2024-03-02T05:17:53;1.73;;;1.63;;
5999;SDS011;3028;49.468;7.694;2024-03-02T05:19:55;1.95;;;1.75;;
5999;SDS011;3028;49.468;7.694;2024-03-02T05:21:57;1.42;;;1.35;;
5999;SDS011;3028;49.468;7.694;2024-03-02T05:23:59;1.45;;;1.35;;
5999;SDS011;3028;49.468;7.694;2024-03-02T05:26:01;1.55;;;1.45;;
5999;SDS011;3028;49.468;7.694;2024-03-02T05:28:03;1.75;;;1.65;;
5999;SDS011;3028;49.468;7.694;2024-03-02T05:30:05;1.35;;;1.33;;
5999;SDS011;3028;49.468;7.694;2024-03-02T05:32:08;1.38;;;1.33;;
5999;SDS011;3028;49.468;7.694;2024-03-02T05:34:09;1.30;;;1.30;;
5999;SDS011;3028;49.468;7.694;2024-03-02T05:36:12;1.40;;;1.40;;
5999;SDS011;3028;49.468;7.694;2024-03-02T05:38:14;1.90;;;1.80;;
5999;SDS011;3028;49.468;7.694;2024-03-02T05:40:15;1.23;;;1.23;;
5999;SDS011;3028;49.468;7.694;2024-03-02T05:42:17;1.55;;;1.45;;
5999;SDS011;3028;49.468;7.694;2024-03-02T05:44:20;1.25;;;1.25;;
5999;SDS011;3028;49.468;7.694;2024-03-02T05:46:22;1.38;;;1.38;;
5999;SDS011;3028;49.468;7.694;2024-03-02T05:48:23;1.70;;;1.60;;
5999;SDS011;3028;49.468;7.694;2024-03-02T05:50:25;1.70;;;1.70;;
5999;SDS011;3028;49.468;7.694;2024-03-02T05:52:28;1.65;;;1.55;;
5999;SDS011;3028;49.468;7.694;2024-03-02T05:54:29;1.55;;;1.45;;
5999;SDS011;3028;49.468;7.694;2024-03-02T05:56:31;1.15;;;1.15;;
5999;SDS011;3028;49.468;7.694;2024-03-02T05:58:34;1.00;;;0.98;;
5999;SDS011;3028;49.468;7.694;2024-03-02T06:00:59;1.35;;;0.88;;
5999;SDS011;3028;49.468;7.694;2024-03-02T06:03:01;1.00;;;1.00;;
5999;SDS011;3028;49.468;7.694;2024-03-02T06:05:03;1.80;;;1.73;;
5999;SDS011;3028;49.468;7.694;2024-03-02T06:07:05;1.75;;;1.65;;
5999;SDS011;3028;49.468;7.694;2024-03-02T06:09:07;1.35;;;1.25;;
5999;SDS011;3028;49.468;7.694;2024-03-02T06:11:09;3.42;;;1.05;;
5999;SDS011;3028;49.468;7.694;2024-03-02T06:13:11;0.98;;;0.98;;
5999;SDS011;3028;49.468;7.694;2024-03-02T06:15:13;1.70;;;1.60;;
5999;SDS011;3028;49.468;7.694;2024-03-02T06:17:15;1.00;;;1.00;;
5999;SDS011;3028;49.468;7.694;2024-03-02T06:19:16;1.25;;;1.20;;
5999;SDS011;3028;49.468;7.694;2024-03-02T06:21:19;0.90;;;0.90;;
5999;SDS011;3028;49.468;7.694;2024-03-02T06:23:21;1.17;;;1.08;;
5999;SDS011;3028;49.468;7.694;2024-03-02T06:25:23;1.00;;;1.00;;
5999;SDS011;3028;49.468;7.694;2024-03-02T06:27:25;2.05;;;0.95;;
5999;SDS011;3028;49.468;7.694;2024-03-02T06:29:27;1.25;;;1.25;;
5999;SDS011;3028;49.468;7.694;2024-03-02T06:31:28;1.30;;;1.15;;
5999;SDS011;3028;49.468;7.694;2024-03-02T06:33:31;2.85;;;2.65;;
5999;SDS011;3028;49.468;7.694;2024-03-02T06:35:33;1.73;;;1.63;;
5999;SDS011;3028;49.468;7.694;2024-03-02T06:37:36;2.13;;;1.90;;
5999;SDS011;3028;49.468;7.694;2024-03-02T06:39:40;3.75;;;3.45;;
5999;SDS011;3028;49.468;7.694;2024-03-02T06:41:41;4.03;;;3.67;;
5999;SDS011;3028;49.468;7.694;2024-03-02T06:43:48;1.95;;;1.85;;
5999;SDS011;3028;49.468;7.694;2024-03-02T06:45:50;1.50;;;1.40;;
5999;SDS011;3028;49.468;7.694;2024-03-02T06:47:52;1.90;;;1.60;;
5999;SDS011;3028;49.468;7.694;2024-03-02T06:49:54;1.65;;;1.50;;
5999;SDS011;3028;49.468;7.694;2024-03-02T06:51:56;2.35;;;2.03;;
5999;SDS011;3028;49.468;7.694;2024-03-02T06:53:57;2.03;;;1.88;;
5999;SDS011;3028;49.468;7.694;2024-03-02T06:55:59;4.32;;;2.92;;
5999;SDS011;3028;49.468;7.694;2024-03-02T06:58:01;1.85;;;1.73;;
5999;SDS011;3028;49.468;7.694;2024-03-02T07:00:03;1.92;;;1.77;;
5999;SDS011;3028;49.468;7.694;2024-03-02T07:02:06;2.83;;;1.77;;
5999;SDS011;3028;49.468;7.694;2024-03-02T07:04:09;1.38;;;1.35;;
5999;SDS011;3028;49.468;7.694;2024-03-02T07:06:11;2.72;;;2.03;;
5999;SDS011;3028;49.468;7.694;2024-03-02T07:08:13;2.17;;;2.08;;
5999;SDS011;3028;49.468;7.694;2024-03-02T07:10:15;2.15;;;2.00;;
5999;SDS011;3028;49.468;7.694;2024-03-02T07:12:16;2.05;;;1.95;;
5999;SDS011;3028;49.468;7.694;2024-03-02T07:14:18;2.30;;;1.42;;
5999;SDS011;3028;49.468;7.694;2024-03-02T07:16:20;3.55;;;3.35;;
5999;SDS011;3028;49.468;7.694;2024-03-02T07:18:22;1.90;;;1.80;;
5999;SDS011;3028;49.468;7.694;2024-03-02T07:20:24;2.80;;;2.60;;
5999;SDS011;3028;49.468;7.694;2024-03-02T07:22:25;2.22;;;2.13;;
5999;SDS011;3028;49.468;7.694;2024-03-02T07:24:27;2.70;;;2.50;;
5999;SDS011;3028;49.468;7.694;2024-03-02T07:26:30;3.33;;;3.03;;
5999;SDS011;3028;49.468;7.694;2024-03-02T07:28:35;1.80;;;1.70;;
5999;SDS011;3028;49.468;7.694;2024-03-02T07:30:37;2.83;;;2.63;;
5999;SDS011;3028;49.468;7.694;2024-03-02T07:32:40;2.13;;;2.03;;
5999;SDS011;3028;49.468;7.694;2024-03-02T07:34:43;2.53;;;2.33;;
5999;SDS011;3028;49.468;7.694;2024-03-02T07:36:45;2.00;;;1.88;;
5999;SDS011;3028;49.468;7.694;2024-03-02T07:38:47;2.78;;;2.58;;
5999;SDS011;3028;49.468;7.694;2024-03-02T07:40:51;2.28;;;1.98;;
5999;SDS011;3028;49.468;7.694;2024-03-02T07:42:54;2.17;;;1.85;;
5999;SDS011;3028;49.468;7.694;2024-03-02T07:44:56;1.83;;;1.73;;
5999;SDS011;3028;49.468;7.694;2024-03-02T07:46:58;2.00;;;1.83;;
5999;SDS011;3028;49.468;7.694;2024-03-02T07:49:00;2.08;;;1.98;;
5999;SDS011;3028;49.468;7.694;2024-03-02T07:51:02;2.00;;;1.90;;
5999;SDS011;3028;49.468;7.694;2024-03-02T07:53:04;2.97;;;2.75;;
5999;SDS011;3028;49.468;7.694;2024-03-02T07:55:06;7.57;;;2.90;;
5999;SDS011;3028;49.468;7.694;2024-03-02T07:57:08;3.80;;;2.85;;
5999;SDS011;3028;49.468;7.694;2024-03-02T07:59:10;10.48;;;3.33;;
5999;SDS011;3028;49.468;7.694;2024-03-02T08:01:12;4.65;;;4.25;;
5999;SDS011;3028;49.468;7.694;2024-03-02T08:03:14;6.15;;;3.88;;
5999;SDS011;3028;49.468;7.694;2024-03-02T08:05:16;3.97;;;3.67;;
5999;SDS011;3028;49.468;7.694;2024-03-02T08:07:20;4.25;;;3.83;;
5999;SDS011;3028;49.468;7.694;2024-03-02T08:09:22;4.30;;;3.53;;
5999;SDS011;3028;49.468;7.694;2024-03-02T08:11:23;4.22;;;3.90;;
5999;SDS011;3028;49.468;7.694;2024-03-02T08:13:25;3.95;;;3.30;;
5999;SDS011;3028;49.468;7.694;2024-03-02T08:15:27;3.53;;;3.22;;
5999;SDS011;3028;49.468;7.694;2024-03-02T08:17:30;2.20;;;2.10;;
5999;SDS011;3028;49.468;7.694;2024-03-02T08:19:40;2.60;;;2.40;;
5999;SDS011;3028;49.468;7.694;2024-03-02T08:21:43;1.80;;;1.70;;
5999;SDS011;3028;49.468;7.694;2024-03-02T08:23:45;1.80;;;1.70;;
5999;SDS011;3028;49.468;7.694;2024-03-02T08:25:47;0.82;;;0.82;;
5999;SDS011;3028;49.468;7.694;2024-03-02T08:27:50;1.63;;;1.52;;
5999;SDS011;3028;49.468;7.694;2024-03-02T08:29:56;1.13;;;1.02;;
5999;SDS011;3028;49.468;7.694;2024-03-02T08:31:57;1.15;;;1.15;;
5999;SDS011;3028;49.468;7.694;2024-03-02T08:33:59;1.00;;;1.00;;
5999;SDS011;3028;49.468;7.694;2024-03-02T08:36:04;2.08;;;1.13;;
5999;SDS011;3028;49.468;7.694;2024-03-02T08:38:07;0.95;;;0.95;;
5999;SDS011;3028;49.468;7.694;2024-03-02T08:40:08;1.13;;;1.13;;
5999;SDS011;3028;49.468;7.694;2024-03-02T08:42:11;1.00;;;1.00;;
5999;SDS011;3028;49.468;7.694;2024-03-02T08:44:13;1.67;;;0.90;;
5999;SDS011;3028;49.468;7.694;2024-03-02T08:46:15;1.55;;;1.45;;
5999;SDS011;3028;49.468;7.694;2024-03-02T08:48:17;1.45;;;1.20;;
5999;SDS011;3028;49.468;7.694;2024-03-02T08:50:19;0.93;;;0.93;;
5999;SDS011;3028;49.468;7.694;2024-03-02T08:52:21;2.47;;;2.03;;
5999;SDS011;3028;49.468;7.694;2024-03-02T08:54:22;2.33;;;2.17;;
5999;SDS011;3028;49.468;7.694;2024-03-02T08:56:24;0.90;;;0.90;;
5999;SDS011;3028;49.468;7.694;2024-03-02T08:58:26;1.02;;;0.93;;
5999;SDS011;3028;49.468;7.694;2024-03-02T09:00:28;0.70;;;0.70;;
5999;SDS011;3028;49.468;7.694;2024-03-02T09:02:30;1.00;;;1.00;;
5999;SDS011;3028;49.468;7.694;2024-03-02T09:04:32;1.17;;;1.05;;
5999;SDS011;3028;49.468;7.694;2024-03-02T09:06:35;2.15;;;1.58;;
5999;SDS011;3028;49.468;7.694;2024-03-02T09:08:37;1.30;;;1.20;;
5999;SDS011;3028;49.468;7.694;2024-03-02T09:10:40;1.30;;;1.30;;
5999;SDS011;3028;49.468;7.694;2024-03-02T09:12:42;1.27;;;1.27;;
5999;SDS011;3028;49.468;7.694;2024-03-02T09:14:44;1.10;;;1.10;;
5999;SDS011;3028;49.468;7.694;2024-03-02T09:16:47;1.10;;;1.10;;
5999;SDS011;3028;49.468;7.694;2024-03-02T09:18:48;1.10;;;1.10;;
5999;SDS011;3028;49.468;7.694;2024-03-02T09:20:50;1.85;;;1.00;;
5999;SDS011;3028;49.468;7.694;2024-03-02T09:22:52;1.00;;;1.00;;
5999;SDS011;3028;49.468;7.694;2024-03-02T09:24:54;2.15;;;0.95;;
5999;SDS011;3028;49.468;7.694;2024-03-02T09:26:56;1.00;;;1.00;;
5999;SDS011;3028;49.468;7.694;2024-03-02T09:29:01;0.70;;;0.70;;
5999;SDS011;3028;49.468;7.694;2024-03-02T09:31:02;1.05;;;1.05;;
5999;SDS011;3028;49.468;7.694;2024-03-02T09:33:07;0.88;;;0.88;;
5999;SDS011;3028;49.468;7.694;2024-03-02T09:35:12;0.90;;;0.90;;
5999;SDS011;3028;49.468;7.694;2024-03-02T09:37:13;1.10;;;0.88;;
5999;SDS011;3028;49.468;7.694;2024-03-02T09:39:16;0.85;;;0.85;;
5999;SDS011;3028;49.468;7.694;2024-03-02T09:41:19;0.50;;;0.50;;
5999;SDS011;3028;49.468;7.694;2024-03-02T09:43:21;0.80;;;0.80;;
5999;SDS011;3028;49.468;7.694;2024-03-02T09:45:24;1.10;;;1.02;;
5999;SDS011;3028;49.468;7.694;2024-03-02T09:47:26;0.80;;;0.80;;
5999;SDS011;3028;49.468;7.694;2024-03-02T09:49:28;1.52;;;1.42;;
5999;SDS011;3028;49.468;7.694;2024-03-02T09:51:33;2.80;;;2.55;;
5999;SDS011;3028;49.468;7.694;2024-03-02T09:53:34;2.70;;;2.15;;
5999;SDS011;3028;49.468;7.694;2024-03-02T09:55:36;2.80;;;2.60;;
5999;SDS011;3028;49.468;7.694;2024-03-02T09:57:38;1.77;;;1.45;;
5999;SDS011;3028;49.468;7.694;2024-03-02T09:59:42;1.23;;;1.13;;
5999;SDS011;3028;49.468;7.694;2024-03-02T10:01:56;1.77;;;0.73;;
5999;SDS011;3028;49.468;7.694;2024-03-02T10:04:02;0.80;;;0.80;;
5999;SDS011;3028;49.468;7.694;2024-03-02T10:06:23;0.88;;;0.88;;
5999;SDS011;3028;49.468;7.694;2024-03-02T10:08:25;1.50;;;1.00;;
5999;SDS011;3028;49.468;7.694;2024-03-02T10:10:40;1.15;;;1.00;;
5999;SDS011;3028;49.468;7.694;2024-03-02T10:12:43;0.82;;;0.82;;
5999;SDS011;3028;49.468;7.694;2024-03-02T10:14:45;0.80;;;0.80;;
5999;SDS011;3028;49.468;7.694;2024-03-02T10:16:50;0.50;;;0.50;;
5999;SDS011;3028;49.468;7.694;2024-03-02T10:18:58;0.85;;;0.65;;
5999;SDS011;3028;49.468;7.694;2024-03-02T10:21:23;0.88;;;0.88;;
5999;SDS011;3028;49.468;7.694;2024-03-02T10:23:26;0.70;;;0.70;;
5999;SDS011;3028;49.468;7.694;2024-03-02T10:25:32;0.68;;;0.68;;
5999;SDS011;3028;49.468;7.694;2024-03-02T10:27:51;0.80;;;0.80;;
5999;SDS011;3028;49.468;7.694;2024-03-02T10:29:53;0.70;;;0.70;;
5999;SDS011;3028;49.468;7.694;2024-03-02T10:31:55;1.50;;;1.10;;
5999;SDS011;3028;49.468;7.694;2024-03-02T10:33:57;0.93;;;0.60;;
5999;SDS011;3028;49.468;7.694;2024-03-02T10:35:59;0.90;;;0.90;;
5999;SDS011;3028;49.468;7.694;2024-03-02T10:38:03;1.15;;;0.85;;
5999;SDS011;3028;49.468;7.694;2024-03-02T10:40:07;1.10;;;0.90;;
5999;SDS011;3028;49.468;7.694;2024-03-02T10:42:14;0.70;;;0.70;;
5999;SDS011;3028;49.468;7.694;2024-03-02T10:44:16;0.60;;;0.60;;
5999;SDS011;3028;49.468;7.694;2024-03-02T10:46:19;1.10;;;0.95;;
5999;SDS011;3028;49.468;7.694;2024-03-02T10:48:21;0.90;;;0.90;;
5999;SDS011;3028;49.468;7.694;2024-03-02T10:50:23;0.88;;;0.88;;
5999;SDS011;3028;49.468;7.694;2024-03-02T10:52:26;0.93;;;0.93;;
5999;SDS011;3028;49.468;7.694;2024-03-02T10:54:27;0.73;;;0.73;;
5999;SDS011;3028;49.468;7.694;2024-03-02T10:56:39;0.60;;;0.60;;
5999;SDS011;3028;49.468;7.694;2024-03-02T10:58:41;0.90;;;0.90;;
5999;SDS011;3028;49.468;7.694;2024-03-02T11:00:43;0.90;;;0.90;;
5999;SDS011;3028;49.468;7.694;2024-03-02T11:02:51;1.08;;;0.75;;
5999;SDS011;3028;49.468;7.694;2024-03-02T11:04:54;0.93;;;0.85;;
5999;SDS011;3028;49.468;7.694;2024-03-02T11:07:03;0.60;;;0.60;;
5999;SDS011;3028;49.468;7.694;2024-03-02T11:09:07;0.50;;;0.50;;
5999;SDS011;3028;49.468;7.694;2024-03-02T11:11:18;6.32;;;0.85;;
5999;SDS011;3028;49.468;7.694;2024-03-02T11:13:33;0.68;;;0.68;;
5999;SDS011;3028;49.468;7.694;2024-03-02T11:15:43;0.55;;;0.55;;
5999;SDS011;3028;49.468;7.694;2024-03-02T11:17:45;0.60;;;0.60;;
5999;SDS011;3028;49.468;7.694;2024-03-02T11:19:48;0.50;;;0.50;;
5999;SDS011;3028;49.468;7.694;2024-03-02T11:21:50;0.63;;;0.63;;
5999;SDS011;3028;49.468;7.694;2024-03-02T11:23:52;0.43;;;0.43;;
5999;SDS011;3028;49.468;7.694;2024-03-02T11:25:54;0.52;;;0.52;;
5999;SDS011;3028;49.468;7.694;2024-03-02T11:29:58;0.68;;;0.68;;
5999;SDS011;3028;49.468;7.694;2024-03-02T11:32:00;0.50;;;0.50;;
5999;SDS011;3028;49.468;7.694;2024-03-02T11:34:17;0.85;;;0.70;;
5999;SDS011;3028;49.468;7.694;2024-03-02T11:36:20;0.60;;;0.60;;
5999;SDS011;3028;49.468;7.694;2024-03-02T11:38:21;2.25;;;1.02;;
5999;SDS011;3028;49.468;7.694;2024-03-02T11:40:26;0.77;;;0.77;;
5999;SDS011;3028;49.468;7.694;2024-03-02T11:42:29;0.80;;;0.80;;
5999;SDS011;3028;49.468;7.694;2024-03-02T11:44:32;0.70;;;0.70;;
5999;SDS011;3028;49.468;7.694;2024-03-02T11:46:34;0.57;;;0.57;;
5999;SDS011;3028;49.468;7.694;2024-03-02T11:48:36;0.32;;;0.32;;
5999;SDS011;3028;49.468;7.694;2024-03-02T11:50:40;0.63;;;0.63;;
5999;SDS011;3028;49.468;7.694;2024-03-02T11:52:43;0.52;;;0.52;;
5999;SDS011;3028;49.468;7.694;2024-03-02T11:54:46;0.50;;;0.50;;
5999;SDS011;3028;49.468;7.694;2024-03-02T11:56:50;0.40;;;0.40;;
5999;SDS011;3028;49.468;7.694;2024-03-02T11:58:53;0.40;;;0.40;;
5999;SDS011;3028;49.468;7.694;2024-03-02T12:00:55;0.47;;;0.47;;
5999;SDS011;3028;49.468;7.694;2024-03-02T12:05:03;0.45;;;0.45;;
5999;SDS011;3028;49.468;7.694;2024-03-02T12:07:05;0.50;;;0.50;;
5999;SDS011;3028;49.468;7.694;2024-03-02T12:09:09;0.45;;;0.40;;
5999;SDS011;3028;49.468;7.694;2024-03-02T12:11:13;0.30;;;0.30;;
5999;SDS011;3028;49.468;7.694;2024-03-02T12:13:17;0.60;;;0.60;;
5999;SDS011;3028;49.468;7.694;2024-03-02T12:15:22;0.50;;;0.50;;
5999;SDS011;3028;49.468;7.694;2024-03-02T12:17:24;1.02;;;0.43;;
5999;SDS011;3028;49.468;7.694;2024-03-02T12:19:26;0.63;;;0.57;;
5999;SDS011;3028;49.468;7.694;2024-03-02T12:21:28;0.50;;;0.50;;
5999;SDS011;3028;49.468;7.694;2024-03-02T12:23:30;0.50;;;0.50;;
5999;SDS011;3028;49.468;7.694;2024-03-02T12:25:32;0.35;;;0.35;;
5999;SDS011;3028;49.468;7.694;2024-03-02T12:27:38;0.40;;;0.40;;
5999;SDS011;3028;49.468;7.694;2024-03-02T12:29:41;0.60;;;0.60;;
5999;SDS011;3028;49.468;7.694;2024-03-02T12:31:42;0.28;;;0.28;;
5999;SDS011;3028;49.468;7.694;2024-03-02T12:33:46;0.75;;;0.60;;
5999;SDS011;3028;49.468;7.694;2024-03-02T12:35:49;0.50;;;0.50;;
5999;SDS011;3028;49.468;7.694;2024-03-02T12:37:51;1.13;;;0.55;;
5999;SDS011;3028;49.468;7.694;2024-03-02T12:39:54;0.40;;;0.40;;
5999;SDS011;3028;49.468;7.694;2024-03-02T12:41:56;0.28;;;0.28;;
5999;SDS011;3028;49.468;7.694;2024-03-02T12:43:57;0.40;;;0.40;;
5999;SDS011;3028;49.468;7.694;2024-03-02T12:45:59;1.05;;;0.60;;
5999;SDS011;3028;49.468;7.694;2024-03-02T12:48:01;0.40;;;0.40;;
5999;SDS011;3028;49.468;7.694;2024-03-02T12:50:04;0.40;;;0.40;;